createdAt,value
2022-12-18T00:01:30.285Z,85.10
2022-12-18T00:03:58.363Z,84.92
2022-12-18T00:06:27.805Z,84.51
2022-12-18T00:08:56.952Z,86.03
2022-12-18T00:11:27.058Z,86.34
2022-12-18T00:13:57.472Z,87.65
2022-12-18T00:16:26.926Z,87.53
2022-12-18T00:19:01.065Z,86.45
2022-12-18T00:21:29.621Z,86.59
2022-12-18T00:23:57.544Z,86.90
2022-12-18T00:26:27.463Z,87.75
2022-12-18T00:28:56.541Z,86.83
2022-12-18T00:31:25.886Z,86.87
2022-12-18T00:33:57.306Z,87.38
2022-12-18T00:36:28.569Z,87.31
2022-12-18T00:38:57.787Z,87.75
2022-12-18T00:41:43.721Z,87.02
2022-12-18T00:44:13.681Z,87.32
2022-12-18T00:46:42.129Z,87.18
2022-12-18T00:49:14.608Z,87.44
2022-12-18T00:51:42.512Z,86.93
2022-12-18T00:54:10.701Z,86.43
2022-12-18T00:56:48.044Z,86.11
2022-12-18T00:59:16.601Z,86.05
2022-12-18T01:01:44.656Z,85.38
2022-12-18T01:04:13.796Z,85.51
2022-12-18T01:06:41.922Z,85.93
2022-12-18T01:09:09.614Z,86.18
2022-12-18T01:11:37.261Z,86.67
2022-12-18T01:14:04.901Z,86.40
2022-12-18T01:16:32.678Z,86.64
2022-12-18T01:19:00.379Z,86.33
2022-12-18T01:21:29.535Z,86.18
2022-12-18T01:23:58.839Z,86.44
2022-12-18T01:26:30.392Z,86.36
2022-12-18T01:28:58.482Z,86.08
2022-12-18T01:31:29.117Z,87.96
2022-12-18T01:33:58.388Z,88.02
2022-12-18T01:36:29.835Z,88.27
2022-12-18T01:38:58.413Z,87.72
2022-12-18T01:41:48.565Z,85.80
2022-12-18T01:44:49.596Z,86.66
2022-12-18T01:47:20.494Z,85.46
2022-12-18T01:49:48.449Z,86.49
2022-12-18T01:52:19.884Z,86.68
2022-12-18T01:54:49.412Z,87.84
2022-12-18T01:57:17.251Z,86.41
2022-12-18T01:59:48.830Z,86.97
2022-12-18T02:02:17.854Z,87.48
2022-12-18T02:04:49.357Z,87.28
2022-12-18T02:07:26.797Z,86.55
2022-12-18T02:10:02.156Z,86.25
2022-12-18T02:12:36.244Z,88.16
2022-12-18T02:15:11.680Z,86.49
2022-12-18T02:17:45.062Z,87.40
2022-12-18T02:20:18.896Z,87.71
2022-12-18T02:23:01.681Z,87.22
2022-12-18T02:25:59.803Z,87.09
2022-12-18T02:28:34.203Z,87.36
2022-12-18T02:31:06.577Z,88.55
2022-12-18T02:33:37.190Z,88.08
2022-12-18T02:36:05.997Z,87.88
2022-12-18T02:38:35.770Z,87.39
2022-12-18T02:41:05.264Z,88.90
2022-12-18T02:43:34.301Z,87.83
2022-12-18T02:46:22.985Z,87.93
2022-12-18T02:48:53.959Z,87.43
2022-12-18T02:51:31.122Z,88.25
2022-12-18T02:54:07.940Z,88.65
2022-12-18T02:56:40.884Z,88.36
2022-12-18T02:59:15.506Z,89.33
2022-12-18T03:01:51.236Z,89.31
2022-12-18T03:04:27.504Z,87.64
2022-12-18T03:06:58.414Z,88.31
2022-12-18T03:09:32.319Z,87.39
2022-12-18T03:12:23.774Z,86.07
2022-12-18T03:14:58.393Z,86.01
2022-12-18T03:17:29.117Z,85.13
2022-12-18T03:20:00.835Z,85.86
2022-12-18T03:22:31.741Z,86.40
2022-12-18T03:25:02.028Z,86.06
2022-12-18T03:27:33.316Z,86.95
2022-12-18T03:30:08.426Z,87.32
2022-12-18T03:32:41.865Z,86.33
2022-12-18T03:35:14.945Z,87.11
2022-12-18T03:37:42.677Z,88.12
2022-12-18T03:40:11.310Z,88.30
2022-12-18T03:42:47.118Z,89.16
2022-12-18T03:45:24.583Z,88.90
2022-12-18T03:48:01.589Z,88.53
2022-12-18T03:50:38.597Z,88.76
2022-12-18T03:53:17.406Z,88.86
2022-12-18T03:55:46.881Z,87.57
2022-12-18T03:58:18.195Z,87.37
2022-12-18T04:00:49.975Z,87.03
2022-12-18T04:03:25.454Z,88.39
2022-12-18T04:05:57.527Z,87.89
2022-12-18T04:08:26.672Z,86.01
2022-12-18T04:10:54.499Z,86.40
2022-12-18T04:13:25.975Z,86.10
2022-12-18T04:15:55.285Z,86.69
2022-12-18T04:18:22.961Z,86.21
2022-12-18T04:20:50.751Z,84.78
2022-12-18T04:23:18.394Z,85.40
2022-12-18T04:25:46.078Z,84.75
2022-12-18T04:28:13.777Z,85.06
2022-12-18T04:30:41.539Z,84.70
2022-12-18T04:33:12.072Z,85.36
2022-12-18T04:35:39.872Z,85.87
2022-12-18T04:38:07.816Z,84.67
2022-12-18T04:40:36.652Z,84.09
2022-12-18T04:43:04.738Z,85.95
2022-12-18T04:45:32.605Z,85.41
2022-12-18T04:48:00.282Z,85.24
2022-12-18T04:50:29.975Z,85.44
2022-12-18T04:52:58.574Z,85.83
2022-12-18T04:55:29.441Z,87.04
2022-12-18T04:57:57.181Z,86.42
2022-12-18T05:00:24.980Z,85.74
2022-12-18T05:02:52.873Z,85.28
2022-12-18T05:05:20.708Z,85.43
2022-12-18T05:07:49.694Z,85.41
2022-12-18T05:10:17.665Z,87.32
2022-12-18T05:15:44.523Z,87.10
2022-12-18T05:18:12.128Z,85.15
2022-12-18T05:20:39.771Z,87.30
2022-12-18T05:23:07.333Z,84.55
2022-12-18T05:25:34.936Z,84.77
2022-12-18T05:28:02.505Z,85.07
2022-12-18T05:30:30.090Z,86.45
2022-12-18T05:32:58.951Z,84.99
2022-12-18T05:35:26.553Z,84.50
2022-12-18T05:37:54.203Z,85.31
2022-12-18T05:40:21.764Z,84.80
2022-12-18T05:42:49.330Z,84.46
2022-12-18T05:45:16.895Z,83.74
2022-12-18T05:47:44.478Z,85.13
2022-12-18T05:50:13.384Z,85.51
2022-12-18T05:52:41.003Z,84.61
2022-12-18T05:55:09.460Z,85.14
2022-12-18T05:57:37.110Z,83.43
2022-12-18T06:00:05.444Z,85.73
2022-12-18T06:02:33.113Z,85.49
2022-12-18T06:05:00.786Z,85.19
2022-12-18T06:07:29.668Z,85.70
2022-12-18T06:09:57.221Z,84.89
2022-12-18T06:12:24.768Z,84.65
2022-12-18T06:14:52.412Z,84.21
2022-12-18T06:17:19.965Z,83.61
2022-12-18T06:19:47.529Z,84.80
2022-12-18T06:22:15.097Z,85.25
2022-12-18T06:24:43.988Z,84.07
2022-12-18T06:27:12.304Z,86.85
2022-12-18T06:29:39.814Z,87.64
2022-12-18T06:32:07.531Z,87.49
2022-12-18T06:34:35.099Z,85.75
2022-12-18T06:37:02.599Z,85.09
2022-12-18T06:39:30.404Z,83.66
2022-12-18T06:41:59.264Z,84.09
2022-12-18T06:44:26.866Z,85.25
2022-12-18T06:46:54.506Z,85.78
2022-12-18T06:49:25.036Z,86.05
2022-12-18T06:51:54.999Z,85.41
2022-12-18T06:54:22.658Z,85.61
2022-12-18T06:56:51.545Z,85.44
2022-12-18T06:59:20.622Z,85.72
2022-12-18T07:01:48.351Z,85.18
2022-12-18T07:04:16.069Z,84.73
2022-12-18T07:06:43.606Z,84.48
2022-12-18T07:09:11.151Z,84.42
2022-12-18T07:11:38.707Z,82.97
2022-12-18T07:14:06.351Z,83.98
2022-12-18T07:16:35.255Z,85.04
2022-12-18T07:19:02.799Z,86.07
2022-12-18T07:21:30.500Z,86.40
2022-12-18T07:23:58.254Z,85.20
2022-12-18T07:26:27.193Z,83.30
2022-12-18T07:28:58.332Z,83.50
2022-12-18T07:31:27.363Z,83.43
2022-12-18T07:33:57.257Z,84.63
2022-12-18T07:36:25.200Z,83.79
2022-12-18T07:38:53.704Z,83.24
2022-12-18T07:41:22.045Z,83.07
2022-12-18T07:43:49.920Z,83.13
2022-12-18T07:46:18.276Z,82.22
2022-12-18T07:48:50.062Z,82.29
2022-12-18T07:51:20.105Z,82.73
2022-12-18T07:53:49.618Z,82.46
2022-12-18T07:56:29.504Z,82.55
2022-12-18T07:58:59.127Z,82.11
2022-12-18T08:01:27.385Z,82.45
2022-12-18T08:03:55.104Z,81.64
2022-12-18T08:06:26.841Z,82.32
2022-12-18T08:08:55.298Z,82.43
2022-12-18T08:11:24.039Z,82.23
2022-12-18T08:13:51.891Z,82.13
2022-12-18T08:16:20.651Z,82.26
2022-12-18T08:18:48.702Z,82.24
2022-12-18T08:21:19.199Z,82.17
2022-12-18T08:23:51.539Z,82.37
2022-12-18T08:26:20.009Z,82.05
2022-12-18T08:28:48.797Z,81.65
2022-12-18T08:31:17.303Z,80.68
2022-12-18T08:33:45.042Z,80.63
2022-12-18T08:36:12.963Z,81.10
2022-12-18T08:38:40.922Z,80.98
2022-12-18T08:41:12.473Z,80.93
2022-12-18T08:43:57.994Z,81.30
2022-12-18T08:46:27.770Z,81.55
2022-12-18T08:48:56.508Z,81.37
2022-12-18T08:51:24.076Z,80.57
2022-12-18T08:53:51.738Z,81.24
2022-12-18T08:56:20.825Z,80.69
2022-12-18T08:58:48.524Z,80.29
2022-12-18T09:01:16.212Z,81.29
2022-12-18T09:03:44.403Z,81.68
2022-12-18T09:06:16.552Z,82.12
2022-12-18T09:08:44.566Z,81.58
2022-12-18T09:11:24.084Z,80.33
2022-12-18T09:13:52.644Z,80.59
2022-12-18T09:16:21.481Z,80.65
2022-12-18T09:18:50.141Z,79.44
2022-12-18T09:21:20.652Z,80.53
2022-12-18T09:23:51.461Z,81.18
2022-12-18T09:26:19.137Z,80.45
2022-12-18T09:28:48.057Z,80.16
2022-12-18T09:31:20.466Z,79.10
2022-12-18T09:33:48.107Z,80.02
2022-12-18T09:36:18.495Z,78.74
2022-12-18T09:38:46.158Z,78.52
2022-12-18T09:41:30.696Z,79.50
2022-12-18T09:44:04.173Z,79.16
2022-12-18T09:46:36.691Z,80.47
2022-12-18T09:49:09.466Z,79.18
2022-12-18T09:51:41.565Z,79.60
2022-12-18T09:54:14.922Z,78.90
2022-12-18T09:56:45.173Z,79.46
2022-12-18T09:59:23.187Z,79.02
2022-12-18T10:01:50.904Z,78.36
2022-12-18T10:04:18.658Z,79.47
2022-12-18T10:06:52.238Z,78.24
2022-12-18T10:09:31.716Z,77.22
2022-12-18T10:12:09.561Z,77.13
2022-12-18T10:14:48.614Z,77.16
2022-12-18T10:17:26.481Z,77.09
2022-12-18T10:19:58.359Z,76.19
2022-12-18T10:22:40.812Z,78.08
2022-12-18T10:25:19.599Z,77.02
2022-12-18T10:27:47.354Z,77.09
2022-12-18T10:30:18.904Z,77.77
2022-12-18T10:32:46.514Z,77.49
2022-12-18T10:35:20.404Z,76.29
2022-12-18T10:38:22.512Z,77.91
2022-12-18T10:40:53.492Z,77.02
2022-12-18T10:43:27.538Z,77.52
2022-12-18T10:46:16.514Z,76.63
2022-12-18T10:48:53.985Z,75.78
2022-12-18T10:51:24.278Z,76.20
2022-12-18T10:53:58.972Z,77.05
2022-12-18T10:56:29.072Z,77.90
2022-12-18T10:59:02.402Z,78.48
2022-12-18T11:01:46.813Z,78.00
2022-12-18T11:04:19.355Z,78.80
2022-12-18T11:06:59.761Z,78.60
2022-12-18T11:09:29.446Z,80.89
2022-12-18T11:12:00.064Z,81.12
2022-12-18T11:14:29.759Z,79.39
2022-12-18T11:19:55.454Z,79.54
2022-12-18T11:22:28.447Z,80.04
2022-12-18T11:27:53.158Z,78.24
2022-12-18T11:30:25.667Z,78.74
2022-12-18T11:32:59.660Z,78.04
2022-12-18T11:35:37.589Z,78.55
2022-12-18T11:38:23.774Z,77.19
2022-12-18T11:40:57.183Z,77.78
2022-12-18T11:43:29.869Z,77.65
2022-12-18T11:46:02.725Z,77.53
2022-12-18T11:48:36.342Z,77.92
2022-12-18T11:51:07.592Z,77.97
2022-12-18T11:53:38.969Z,76.90
2022-12-18T11:56:18.386Z,77.71
2022-12-18T11:58:49.524Z,77.67
2022-12-18T12:01:29.451Z,78.75
2022-12-18T12:04:28.458Z,78.17
2022-12-18T12:07:06.244Z,77.78
2022-12-18T12:09:43.086Z,78.07
2022-12-18T12:12:27.849Z,76.81
2022-12-18T12:15:04.453Z,77.83
2022-12-18T12:17:40.020Z,77.32
2022-12-18T12:20:18.794Z,76.95
2022-12-18T12:22:55.194Z,76.46
2022-12-18T12:25:40.609Z,76.58
2022-12-18T12:28:20.260Z,76.65
2022-12-18T12:30:59.106Z,77.64
2022-12-18T12:33:39.269Z,78.58
2022-12-18T12:36:17.996Z,78.85
2022-12-18T12:38:52.383Z,77.63
2022-12-18T12:41:41.993Z,78.73
2022-12-18T12:44:16.834Z,77.11
2022-12-18T12:46:45.885Z,77.29
2022-12-18T12:49:17.943Z,77.89
2022-12-18T12:51:55.431Z,78.64
2022-12-18T12:54:28.664Z,77.69
2022-12-18T12:57:04.230Z,78.11
2022-12-18T12:59:41.081Z,76.47
2022-12-18T13:02:23.933Z,76.08
2022-12-18T13:04:59.897Z,76.40
2022-12-18T13:07:36.078Z,76.21
2022-12-18T13:10:17.475Z,76.72
2022-12-18T13:13:00.233Z,78.76
2022-12-18T13:15:36.711Z,78.37
2022-12-18T13:18:23.543Z,76.77
2022-12-18T13:20:58.579Z,79.04
2022-12-18T13:23:37.322Z,80.00
2022-12-18T13:26:33.896Z,80.35
2022-12-18T13:29:05.074Z,79.69
2022-12-18T13:32:09.696Z,78.47
2022-12-18T13:34:38.420Z,78.39
2022-12-18T13:37:43.459Z,78.29
2022-12-18T13:40:59.229Z,78.39
2022-12-18T13:43:36.240Z,77.62
2022-12-18T13:46:07.414Z,78.06
2022-12-18T13:48:37.923Z,79.03
2022-12-18T13:51:08.327Z,78.57
2022-12-18T13:53:40.904Z,77.65
2022-12-18T13:56:09.466Z,78.55
2022-12-18T13:58:38.709Z,77.55
2022-12-18T14:01:06.817Z,77.93
2022-12-18T14:03:35.555Z,78.22
2022-12-18T14:06:09.025Z,77.34
2022-12-18T14:08:41.336Z,77.87
2022-12-18T14:11:22.115Z,77.35
2022-12-18T14:13:52.252Z,79.08
2022-12-18T14:16:20.232Z,77.99
2022-12-18T14:18:50.928Z,78.22
2022-12-18T14:21:27.969Z,78.88
2022-12-18T14:24:07.047Z,77.07
2022-12-18T14:26:35.212Z,77.39
2022-12-18T14:29:22.776Z,74.86
2022-12-18T14:32:06.944Z,76.63
2022-12-18T14:34:35.938Z,76.39
2022-12-18T14:37:03.578Z,76.25
2022-12-18T14:39:31.132Z,76.99
2022-12-18T14:41:58.719Z,76.49
2022-12-18T14:44:34.532Z,76.26
2022-12-18T14:47:06.983Z,77.15
2022-12-18T14:49:37.670Z,76.24
2022-12-18T14:52:07.562Z,76.70
2022-12-18T14:54:39.174Z,76.74
2022-12-18T14:57:18.403Z,77.85
2022-12-18T14:59:47.268Z,77.98
2022-12-18T15:02:22.922Z,78.86
2022-12-18T15:05:02.021Z,78.86
2022-12-18T15:07:41.585Z,78.75
2022-12-18T15:10:13.419Z,79.42
2022-12-18T15:12:43.406Z,79.92
2022-12-18T15:15:49.372Z,79.71
2022-12-18T15:18:20.901Z,79.09
2022-12-18T15:20:50.715Z,78.77
2022-12-18T15:23:23.580Z,78.20
2022-12-18T15:25:57.476Z,78.15
2022-12-18T15:28:27.221Z,79.53
2022-12-18T15:31:05.052Z,79.21
2022-12-18T15:33:35.560Z,78.67
2022-12-18T15:36:05.143Z,78.19
2022-12-18T15:38:33.382Z,79.42
2022-12-18T15:41:01.319Z,78.46
2022-12-18T15:43:37.759Z,79.84
2022-12-18T15:46:09.025Z,79.42
2022-12-18T15:48:40.637Z,80.18
2022-12-18T15:51:15.724Z,81.29
2022-12-18T15:53:44.028Z,79.88
2022-12-18T15:56:30.768Z,80.61
2022-12-18T15:58:58.349Z,79.61
2022-12-18T16:01:29.464Z,79.35
2022-12-18T16:03:57.953Z,79.79
2022-12-18T16:06:25.713Z,80.70
2022-12-18T16:08:53.239Z,79.94
2022-12-18T16:11:38.905Z,80.38
2022-12-18T16:14:18.834Z,80.56
2022-12-18T16:16:49.207Z,79.17
2022-12-18T16:19:17.052Z,79.07
2022-12-18T16:21:45.543Z,78.54
2022-12-18T16:24:17.160Z,78.94
2022-12-18T16:26:45.242Z,78.98
2022-12-18T16:29:12.905Z,79.00
2022-12-18T16:31:40.477Z,79.48
2022-12-18T16:34:22.745Z,79.38
2022-12-18T16:36:51.420Z,80.21
2022-12-18T16:39:19.318Z,79.69
2022-12-18T16:41:47.044Z,79.54
2022-12-18T16:44:15.231Z,79.25
2022-12-18T16:46:44.447Z,79.70
2022-12-18T16:49:12.065Z,79.29
2022-12-18T16:51:41.297Z,79.28
2022-12-18T16:54:11.016Z,79.07
2022-12-18T16:56:42.755Z,78.90
2022-12-18T16:59:13.132Z,79.06
2022-12-18T17:01:41.893Z,79.43
2022-12-18T17:04:10.274Z,79.50
2022-12-18T17:06:44.396Z,78.18
2022-12-18T17:09:14.739Z,79.36
2022-12-18T17:11:42.958Z,79.08
2022-12-18T17:14:18.768Z,79.16
2022-12-18T17:16:46.469Z,79.90
2022-12-18T17:19:17.407Z,79.80
2022-12-18T17:21:50.155Z,79.25
2022-12-18T17:24:18.724Z,78.74
2022-12-18T17:26:46.866Z,78.97
2022-12-18T17:29:18.264Z,78.33
2022-12-18T17:31:47.408Z,79.17
2022-12-18T17:34:15.590Z,79.25
2022-12-18T17:36:44.036Z,79.52
2022-12-18T17:39:19.070Z,79.46
2022-12-18T17:41:47.005Z,78.57
2022-12-18T17:44:14.604Z,78.80
2022-12-18T17:46:42.624Z,78.91
2022-12-18T17:49:11.235Z,79.05
2022-12-18T17:51:38.937Z,79.64
2022-12-18T17:54:06.681Z,78.14
2022-12-18T17:56:35.678Z,79.04
2022-12-18T17:59:03.646Z,78.93
2022-12-18T18:01:31.492Z,78.19
2022-12-18T18:04:00.297Z,78.67
2022-12-18T18:06:28.043Z,77.54
2022-12-18T18:08:55.663Z,78.13
2022-12-18T18:11:42.557Z,79.09
2022-12-18T18:14:16.951Z,78.11
2022-12-18T18:16:46.831Z,78.32
2022-12-18T18:19:17.309Z,79.00
2022-12-18T18:21:48.365Z,78.82
2022-12-18T18:24:18.543Z,79.60
2022-12-18T18:26:47.323Z,78.36
2022-12-18T18:29:19.071Z,78.66
2022-12-18T18:31:47.091Z,78.55
2022-12-18T18:34:16.145Z,78.99
2022-12-18T18:36:43.832Z,79.19
2022-12-18T18:39:11.449Z,78.94
2022-12-18T18:41:39.257Z,78.49
2022-12-18T18:44:06.857Z,78.47
2022-12-18T18:46:35.742Z,78.93
2022-12-18T18:49:03.328Z,79.11
2022-12-18T18:51:34.787Z,78.07
2022-12-18T18:54:03.183Z,78.22
2022-12-18T18:59:19.369Z,78.23
2022-12-18T19:01:52.673Z,77.94
2022-12-18T19:04:20.788Z,79.24
2022-12-18T19:06:49.332Z,78.02
2022-12-18T19:09:17.190Z,77.87
2022-12-18T19:12:02.297Z,78.31
2022-12-18T19:14:30.208Z,77.92
2022-12-18T19:17:00.422Z,78.49
2022-12-18T19:19:29.234Z,78.41
2022-12-18T19:21:57.460Z,77.91
2022-12-18T19:24:25.234Z,77.10
2022-12-18T19:26:56.836Z,76.77
2022-12-18T19:29:27.479Z,77.04
2022-12-18T19:31:55.962Z,77.25
2022-12-18T19:34:26.808Z,77.39
2022-12-18T19:36:59.718Z,77.92
2022-12-18T19:39:28.475Z,77.75
2022-12-18T19:41:56.517Z,78.04
2022-12-18T19:44:24.226Z,78.65
2022-12-18T19:46:52.796Z,77.99
2022-12-18T19:49:20.595Z,78.46
2022-12-18T19:51:53.320Z,78.22
2022-12-18T19:54:21.059Z,78.80
2022-12-18T19:56:48.861Z,78.25
2022-12-18T19:59:17.105Z,78.00
2022-12-18T20:01:45.021Z,78.98
2022-12-18T20:04:13.007Z,78.32
2022-12-18T20:06:48.756Z,78.52
2022-12-18T20:09:18.616Z,78.22
2022-12-18T20:11:47.457Z,78.89
2022-12-18T20:14:22.799Z,78.08
2022-12-18T20:16:51.494Z,78.12
2022-12-18T20:19:19.875Z,78.06
2022-12-18T20:21:49.162Z,78.04
2022-12-18T20:24:18.226Z,77.84
2022-12-18T20:26:45.991Z,77.48
2022-12-18T20:29:13.734Z,77.59
2022-12-18T20:31:42.071Z,77.84
2022-12-18T20:34:09.773Z,78.18
2022-12-18T20:36:38.739Z,78.28
2022-12-18T20:39:09.849Z,77.71
2022-12-18T20:41:40.339Z,77.25
2022-12-18T20:44:22.726Z,76.57
2022-12-18T20:46:53.581Z,77.32
2022-12-18T20:49:21.665Z,76.72
2022-12-18T20:51:52.219Z,77.18
2022-12-18T20:54:19.902Z,77.64
2022-12-18T20:56:48.792Z,77.80
2022-12-18T20:59:16.688Z,77.47
2022-12-18T21:01:48.742Z,78.63
2022-12-18T21:04:18.433Z,78.28
2022-12-18T21:06:50.939Z,79.08
2022-12-18T21:09:20.694Z,78.02
2022-12-18T21:12:07.466Z,78.51
2022-12-18T21:14:35.456Z,77.82
2022-12-18T21:17:03.087Z,77.98
2022-12-18T21:19:30.771Z,77.83
2022-12-18T21:21:58.799Z,78.36
2022-12-18T21:24:26.741Z,78.16
2022-12-18T21:27:00.241Z,78.25
2022-12-18T21:29:28.001Z,78.12
2022-12-18T21:31:56.119Z,78.22
2022-12-18T21:34:26.427Z,77.71
2022-12-18T21:36:54.820Z,77.78
2022-12-18T21:39:23.353Z,77.88
2022-12-18T21:42:09.495Z,78.02
2022-12-18T21:44:42.274Z,78.01
2022-12-18T21:47:21.570Z,77.93
2022-12-18T21:49:51.045Z,77.78
2022-12-18T21:52:18.831Z,78.41
2022-12-18T21:54:46.489Z,77.79
2022-12-18T21:57:14.311Z,77.50
2022-12-18T21:59:44.240Z,77.85
2022-12-18T22:02:15.135Z,77.58
2022-12-18T22:04:43.805Z,77.52
2022-12-18T22:07:12.040Z,77.57
2022-12-18T22:09:39.791Z,77.56
2022-12-18T22:12:08.893Z,78.07
2022-12-18T22:14:36.595Z,77.59
2022-12-18T22:17:05.523Z,77.08
2022-12-18T22:19:36.756Z,76.92
2022-12-18T22:22:10.353Z,77.27
2022-12-18T22:24:37.946Z,77.44
2022-12-18T22:27:05.484Z,77.30
2022-12-18T22:29:50.731Z,76.76
2022-12-18T22:32:29.426Z,77.04
2022-12-18T22:35:04.952Z,77.13
2022-12-18T22:37:34.782Z,77.23
2022-12-18T22:40:03.103Z,77.33
2022-12-18T22:42:32.513Z,77.47
2022-12-18T22:45:00.567Z,77.28
2022-12-18T22:47:30.613Z,77.00
2022-12-18T22:49:58.650Z,76.49
2022-12-18T22:52:26.686Z,77.05
2022-12-18T22:54:54.527Z,76.83
2022-12-18T22:57:22.547Z,76.38
2022-12-18T22:59:50.121Z,77.02
2022-12-18T23:02:18.878Z,77.06
2022-12-18T23:04:48.568Z,77.43
2022-12-18T23:07:16.868Z,76.92
2022-12-18T23:09:44.918Z,76.43
2022-12-18T23:12:17.025Z,76.64
2022-12-18T23:14:44.958Z,76.63
2022-12-18T23:17:12.524Z,76.52
2022-12-18T23:19:45.458Z,76.26
2022-12-18T23:22:17.682Z,76.09
2022-12-18T23:24:45.431Z,75.80
2022-12-18T23:27:12.979Z,76.92
2022-12-18T23:29:40.906Z,77.66
2022-12-18T23:32:09.070Z,77.77
2022-12-18T23:34:36.652Z,78.01
2022-12-18T23:37:04.553Z,77.41
2022-12-18T23:39:33.470Z,77.34
2022-12-18T23:42:01.549Z,77.52
2022-12-18T23:44:29.181Z,77.41
2022-12-18T23:46:56.896Z,77.16
2022-12-18T23:49:24.546Z,77.34
2022-12-18T23:51:54.729Z,77.82
2022-12-18T23:54:22.722Z,77.28
2022-12-18T23:57:02.547Z,77.60
2022-12-18T23:59:30.120Z,77.94
